createdAt,value
2018-03-29T00:00:22.092Z,76.70
2018-03-29T00:01:11.192Z,76.46
2018-03-29T00:02:00.236Z,75.70
2018-03-29T00:02:49.277Z,75.34
2018-03-29T00:03:38.328Z,75.03
2018-03-29T00:04:27.413Z,75.48
2018-03-29T00:05:16.492Z,75.45
2018-03-29T00:06:05.569Z,76.79
2018-03-29T00:06:54.740Z,77.29
2018-03-29T00:07:43.821Z,77.17
2018-03-29T00:08:32.935Z,77.88
2018-03-29T00:09:22.011Z,78.08
2018-03-29T00:10:11.139Z,78.35
2018-03-29T00:11:00.194Z,78.45
2018-03-29T00:11:49.358Z,78.05
2018-03-29T00:12:38.404Z,78.34
2018-03-29T00:13:27.506Z,78.57
2018-03-29T00:14:16.551Z,79.16
2018-03-29T00:15:05.627Z,78.21
2018-03-29T00:15:54.695Z,77.58
2018-03-29T00:16:43.764Z,77.28
2018-03-29T00:17:32.876Z,77.16
2018-03-29T00:18:21.927Z,77.27
2018-03-29T00:19:10.987Z,77.74
2018-03-29T00:20:00.081Z,78.32
2018-03-29T00:20:49.135Z,78.55
2018-03-29T00:21:38.216Z,77.98
2018-03-29T00:22:27.264Z,77.23
2018-03-29T00:23:16.313Z,76.96
2018-03-29T00:24:05.382Z,76.25
2018-03-29T00:24:54.441Z,76.42
2018-03-29T00:25:43.532Z,76.37
2018-03-29T00:26:32.597Z,76.76
2018-03-29T00:27:21.664Z,76.77
2018-03-29T00:28:10.786Z,77.07
2018-03-29T00:28:59.849Z,77.35
2018-03-29T00:29:48.902Z,77.25
2018-03-29T00:30:37.955Z,76.93
2018-03-29T00:31:27.123Z,76.74
2018-03-29T00:32:16.205Z,76.13
2018-03-29T00:33:05.356Z,75.88
2018-03-29T00:33:54.405Z,75.59
2018-03-29T00:34:43.457Z,75.62
2018-03-29T00:35:32.506Z,76.33
2018-03-29T00:36:21.563Z,76.76
2018-03-29T00:37:10.733Z,76.88
2018-03-29T00:37:59.798Z,76.84
2018-03-29T00:38:48.848Z,76.57
2018-03-29T00:39:37.899Z,77.14
2018-03-29T00:40:26.953Z,77.25
2018-03-29T00:41:16.022Z,77.29
2018-03-29T00:42:05.083Z,77.80
2018-03-29T00:42:54.287Z,77.82
2018-03-29T00:43:43.437Z,77.63
2018-03-29T00:44:32.546Z,77.35
2018-03-29T00:45:21.599Z,78.06
2018-03-29T00:46:10.658Z,77.80
2018-03-29T00:46:59.713Z,77.26
2018-03-29T00:47:48.776Z,76.92
2018-03-29T00:48:37.938Z,77.13
2018-03-29T00:49:26.996Z,77.21
2018-03-29T00:50:16.059Z,77.46
2018-03-29T00:51:05.139Z,77.75
2018-03-29T00:51:54.242Z,78.52
2018-03-29T00:52:44.703Z,78.91
2018-03-29T00:53:44.639Z,79.59
2018-03-29T00:54:33.697Z,80.05
2018-03-29T00:55:22.836Z,80.04
2018-03-29T00:56:11.886Z,80.25
2018-03-29T00:57:00.941Z,80.43
2018-03-29T00:57:50.030Z,80.71
2018-03-29T00:58:39.146Z,80.93
2018-03-29T00:59:28.200Z,81.16
2018-03-29T01:00:17.257Z,81.31
2018-03-29T01:01:06.380Z,81.38
2018-03-29T01:01:55.432Z,81.50
2018-03-29T01:02:44.485Z,81.11
2018-03-29T01:03:33.545Z,81.42
2018-03-29T01:04:22.607Z,81.61
2018-03-29T01:05:11.673Z,80.89
2018-03-29T01:06:00.736Z,80.39
2018-03-29T01:06:49.948Z,80.36
2018-03-29T01:07:39.023Z,79.85
2018-03-29T01:08:33.926Z,79.38
2018-03-29T01:09:22.976Z,78.87
2018-03-29T01:10:12.033Z,78.81
2018-03-29T01:11:01.111Z,79.05
2018-03-29T01:11:50.530Z,78.64
2018-03-29T01:12:39.586Z,78.26
2018-03-29T01:13:28.641Z,78.50
2018-03-29T01:14:17.781Z,78.48
2018-03-29T01:15:07.198Z,78.74
2018-03-29T01:15:56.273Z,79.08
2018-03-29T01:16:45.353Z,78.90
2018-03-29T01:17:34.452Z,79.00
2018-03-29T01:18:23.506Z,78.44
2018-03-29T01:19:12.562Z,78.36
2018-03-29T01:20:01.617Z,78.06
2018-03-29T01:20:50.680Z,77.71
2018-03-29T01:21:39.730Z,77.70
2018-03-29T01:22:28.779Z,77.20
2018-03-29T01:23:17.965Z,77.50
2018-03-29T01:24:07.024Z,77.65
2018-03-29T01:24:56.081Z,77.42
2018-03-29T01:25:45.129Z,77.21
2018-03-29T01:26:34.182Z,77.62
2018-03-29T01:27:23.254Z,77.36
2018-03-29T01:28:12.308Z,77.17
2018-03-29T01:29:01.517Z,77.22
2018-03-29T01:29:50.567Z,76.79
2018-03-29T01:30:39.637Z,76.74
2018-03-29T01:31:28.698Z,76.77
2018-03-29T01:32:29.373Z,76.66
2018-03-29T01:33:18.422Z,75.98
2018-03-29T01:34:07.518Z,76.17
2018-03-29T01:34:56.579Z,76.09
2018-03-29T01:35:45.646Z,76.63
2018-03-29T01:36:34.723Z,77.23
2018-03-29T01:37:23.787Z,78.00
2018-03-29T01:38:12.840Z,78.49
2018-03-29T01:39:01.902Z,78.59
2018-03-29T01:39:51.014Z,79.02
2018-03-29T01:40:40.065Z,79.40
2018-03-29T01:41:29.120Z,79.95
2018-03-29T01:42:18.172Z,78.88
2018-03-29T01:43:07.221Z,78.51
2018-03-29T01:43:56.278Z,78.42
2018-03-29T01:44:45.332Z,78.44
2018-03-29T01:45:34.484Z,78.56
2018-03-29T01:46:23.539Z,78.62
2018-03-29T01:47:12.594Z,79.37
2018-03-29T01:48:01.649Z,79.13
2018-03-29T01:48:50.701Z,79.73
2018-03-29T01:49:39.749Z,79.90
2018-03-29T01:50:28.811Z,80.21
2018-03-29T01:51:17.904Z,80.91
2018-03-29T01:52:06.965Z,80.61
2018-03-29T01:52:56.015Z,80.35
2018-03-29T01:53:45.063Z,79.94
2018-03-29T01:54:34.116Z,79.96
2018-03-29T01:55:23.171Z,79.21
2018-03-29T01:56:12.227Z,79.13
2018-03-29T01:57:01.314Z,79.37
2018-03-29T01:57:50.364Z,79.45
2018-03-29T01:58:39.430Z,79.32
2018-03-29T01:59:28.480Z,79.23
2018-03-29T02:00:17.533Z,78.60
2018-03-29T02:01:06.590Z,78.01
2018-03-29T02:01:55.645Z,78.29
2018-03-29T02:02:44.794Z,78.53
2018-03-29T02:03:33.849Z,78.02
2018-03-29T02:04:22.902Z,78.21
2018-03-29T02:05:12.032Z,77.67
2018-03-29T02:06:01.100Z,77.63
2018-03-29T02:06:50.176Z,77.24
2018-03-29T02:07:39.230Z,77.44
2018-03-29T02:08:31.362Z,77.95
2018-03-29T02:09:20.409Z,78.23
2018-03-29T02:10:09.465Z,78.17
2018-03-29T02:10:58.522Z,78.46
2018-03-29T02:11:47.579Z,77.74
2018-03-29T02:12:36.629Z,77.16
2018-03-29T02:13:25.686Z,76.84
2018-03-29T02:14:14.797Z,76.42
2018-03-29T02:15:03.888Z,76.39
2018-03-29T02:15:52.988Z,77.15
2018-03-29T02:16:42.050Z,77.31
2018-03-29T02:17:33.737Z,78.40
2018-03-29T02:18:22.831Z,78.10
2018-03-29T02:19:11.909Z,77.96
2018-03-29T02:20:00.964Z,77.79
2018-03-29T02:20:50.022Z,78.37
2018-03-29T02:21:39.184Z,78.22
2018-03-29T02:22:28.246Z,78.28
2018-03-29T02:23:17.303Z,78.18
2018-03-29T02:24:06.373Z,78.01
2018-03-29T02:24:55.445Z,77.12
2018-03-29T02:25:44.504Z,76.65
2018-03-29T02:26:33.552Z,77.34
2018-03-29T02:27:22.652Z,77.23
2018-03-29T02:28:11.721Z,77.38
2018-03-29T02:29:00.776Z,77.67
2018-03-29T02:29:49.834Z,77.94
2018-03-29T02:30:38.898Z,78.58
2018-03-29T02:31:27.953Z,79.06
2018-03-29T02:32:17.027Z,79.38
2018-03-29T02:33:06.270Z,80.26
2018-03-29T02:33:55.340Z,80.51
2018-03-29T02:34:46.769Z,81.22
2018-03-29T02:35:35.938Z,80.63
2018-03-29T02:36:25.006Z,80.53
2018-03-29T02:37:14.061Z,80.64
2018-03-29T02:38:03.121Z,80.43
2018-03-29T02:38:52.178Z,80.63
2018-03-29T02:39:41.238Z,80.70
2018-03-29T02:40:30.297Z,80.48
2018-03-29T02:41:19.407Z,80.86
2018-03-29T02:42:08.462Z,80.74
2018-03-29T02:42:57.518Z,81.02
2018-03-29T02:43:46.577Z,81.53
2018-03-29T02:44:35.645Z,81.88
2018-03-29T02:45:24.711Z,82.20
2018-03-29T02:46:13.880Z,82.27
2018-03-29T02:47:02.932Z,82.68
2018-03-29T02:47:51.990Z,82.76
2018-03-29T02:48:41.047Z,82.72
2018-03-29T02:49:30.101Z,82.20
2018-03-29T02:50:19.158Z,82.02
2018-03-29T02:51:08.210Z,81.55
2018-03-29T02:51:57.376Z,81.03
2018-03-29T02:52:46.435Z,80.74
2018-03-29T02:53:35.491Z,80.79
2018-03-29T02:54:24.581Z,80.96
2018-03-29T02:55:13.642Z,80.02
2018-03-29T02:56:02.705Z,79.94
2018-03-29T02:56:51.773Z,79.31
2018-03-29T02:57:40.837Z,79.26
2018-03-29T02:58:29.912Z,77.83
2018-03-29T02:59:18.966Z,78.17
2018-03-29T03:00:08.063Z,78.27
2018-03-29T03:00:57.123Z,78.57
2018-03-29T03:01:46.189Z,78.93
2018-03-29T03:02:35.245Z,78.92
2018-03-29T03:03:24.305Z,78.08
2018-03-29T03:04:13.394Z,78.47
2018-03-29T03:05:02.449Z,78.40
2018-03-29T03:05:51.684Z,79.14
2018-03-29T03:06:40.749Z,78.87
2018-03-29T03:07:29.810Z,78.98
2018-03-29T03:08:18.860Z,78.75
2018-03-29T03:09:07.937Z,78.71
2018-03-29T03:09:56.998Z,78.48
2018-03-29T03:10:46.061Z,78.47
2018-03-29T03:11:35.294Z,78.98
2018-03-29T03:12:24.358Z,78.67
2018-03-29T03:13:13.453Z,78.32
2018-03-29T03:14:02.514Z,77.74
2018-03-29T03:14:51.613Z,77.80
2018-03-29T03:15:40.656Z,78.72
2018-03-29T03:16:29.710Z,79.16
2018-03-29T03:17:18.767Z,79.54
2018-03-29T03:18:07.848Z,79.31
2018-03-29T03:18:56.973Z,79.67
2018-03-29T03:19:46.032Z,78.99
2018-03-29T03:20:35.088Z,78.59
2018-03-29T03:21:24.244Z,78.19
2018-03-29T03:22:13.300Z,78.20
2018-03-29T03:23:02.587Z,77.91
2018-03-29T03:23:51.641Z,77.74
2018-03-29T03:24:40.721Z,77.25
2018-03-29T03:25:29.773Z,77.86
2018-03-29T03:26:18.827Z,77.28
2018-03-29T03:27:07.909Z,77.41
2018-03-29T03:27:56.964Z,77.60
2018-03-29T03:28:46.018Z,77.57
2018-03-29T03:29:35.073Z,77.67
2018-03-29T03:30:24.168Z,77.66
2018-03-29T03:31:13.226Z,77.61
2018-03-29T03:32:02.302Z,77.15
2018-03-29T03:32:51.459Z,77.27
2018-03-29T03:33:40.529Z,78.04
2018-03-29T03:34:29.597Z,77.91
2018-03-29T03:35:18.681Z,78.29
2018-03-29T03:36:07.802Z,78.68
2018-03-29T03:36:56.954Z,77.84
2018-03-29T03:37:46.018Z,77.82
2018-03-29T03:38:35.072Z,78.18
2018-03-29T03:39:24.130Z,77.58
2018-03-29T03:40:13.185Z,77.56
2018-03-29T03:41:02.241Z,77.22
2018-03-29T03:41:51.296Z,76.48
2018-03-29T03:42:40.396Z,77.13
2018-03-29T03:43:29.466Z,77.85
2018-03-29T03:44:18.564Z,77.95
2018-03-29T03:45:07.618Z,77.17
2018-03-29T03:45:56.670Z,77.04
2018-03-29T03:46:45.717Z,77.06
2018-03-29T03:47:34.771Z,77.39
2018-03-29T03:48:23.832Z,77.71
2018-03-29T03:49:12.906Z,78.41
2018-03-29T03:50:03.086Z,78.20
2018-03-29T03:50:52.158Z,78.27
2018-03-29T03:51:41.216Z,78.16
2018-03-29T03:52:30.270Z,78.35
2018-03-29T03:53:19.329Z,78.21
2018-03-29T03:54:08.443Z,77.99
2018-03-29T03:54:57.496Z,78.02
2018-03-29T03:55:46.554Z,78.04
2018-03-29T03:56:35.634Z,78.46
2018-03-29T03:57:24.689Z,78.01
2018-03-29T03:58:13.794Z,77.68
2018-03-29T03:59:02.852Z,77.48
2018-03-29T03:59:51.903Z,77.89
2018-03-29T04:00:40.961Z,77.96
2018-03-29T04:01:30.054Z,77.51
2018-03-29T04:02:19.177Z,78.28
2018-03-29T04:03:08.291Z,77.96
2018-03-29T04:03:57.353Z,78.30
2018-03-29T04:04:46.405Z,79.52
2018-03-29T04:05:35.461Z,80.56
2018-03-29T04:06:24.612Z,80.90
2018-03-29T04:07:13.674Z,81.23
2018-03-29T04:08:02.724Z,81.60
2018-03-29T04:08:51.872Z,81.08
2018-03-29T04:09:40.940Z,80.61
2018-03-29T04:10:30.067Z,79.65
2018-03-29T04:11:19.141Z,78.99
2018-03-29T04:12:08.204Z,79.02
2018-03-29T04:12:57.295Z,80.04
2018-03-29T04:13:46.345Z,79.61
2018-03-29T04:14:35.556Z,79.48
2018-03-29T04:15:24.613Z,79.46
2018-03-29T04:16:13.665Z,79.18
2018-03-29T04:17:02.734Z,79.15
2018-03-29T04:17:51.793Z,78.46
2018-03-29T04:18:41.102Z,77.77
2018-03-29T04:19:30.225Z,77.69
2018-03-29T04:20:19.335Z,77.62
2018-03-29T04:21:08.405Z,77.08
2018-03-29T04:21:57.509Z,77.78
2018-03-29T04:22:46.568Z,77.98
2018-03-29T04:23:35.633Z,76.93
2018-03-29T04:24:24.793Z,77.06
2018-03-29T04:25:13.859Z,77.34
2018-03-29T04:26:02.925Z,77.49
2018-03-29T04:26:51.992Z,78.44
2018-03-29T04:27:41.050Z,78.32
2018-03-29T04:28:30.128Z,78.65
2018-03-29T04:29:19.189Z,78.76
2018-03-29T04:30:08.360Z,78.56
2018-03-29T04:30:57.423Z,78.72
2018-03-29T04:31:46.517Z,78.42
2018-03-29T04:32:35.584Z,78.55
2018-03-29T04:33:24.728Z,78.55
2018-03-29T04:34:13.789Z,79.03
2018-03-29T04:35:02.868Z,79.27
2018-03-29T04:35:51.935Z,80.04
2018-03-29T04:36:40.998Z,80.14
2018-03-29T04:37:30.087Z,79.63
2018-03-29T04:38:19.141Z,80.02
2018-03-29T04:39:09.080Z,82.33
2018-03-29T04:39:58.140Z,80.28
2018-03-29T04:40:47.196Z,80.38
2018-03-29T04:41:36.257Z,80.54
2018-03-29T04:42:25.313Z,76.97
2018-03-29T04:43:14.361Z,76.10
2018-03-29T04:44:03.562Z,76.51
2018-03-29T04:44:52.631Z,76.90
2018-03-29T04:45:41.684Z,76.68
2018-03-29T04:46:30.736Z,75.78
2018-03-29T04:47:19.814Z,75.51
2018-03-29T04:48:08.868Z,75.17
2018-03-29T04:48:57.926Z,74.92
2018-03-29T04:49:47.068Z,74.89
2018-03-29T04:50:36.124Z,75.03
2018-03-29T04:51:25.206Z,75.31
2018-03-29T04:52:14.611Z,76.12
2018-03-29T04:53:03.668Z,76.49
2018-03-29T04:53:52.729Z,76.26
2018-03-29T04:54:41.796Z,75.78
2018-03-29T04:55:30.984Z,76.23
2018-03-29T04:56:20.060Z,75.06
2018-03-29T04:57:09.120Z,74.49
2018-03-29T04:57:58.184Z,75.20
2018-03-29T04:58:47.241Z,75.07
2018-03-29T04:59:36.485Z,75.32
2018-03-29T05:00:25.544Z,75.02
2018-03-29T05:01:14.597Z,73.43
2018-03-29T05:02:03.657Z,73.85
2018-03-29T05:02:52.717Z,75.61
2018-03-29T05:03:41.780Z,73.29
2018-03-29T05:04:30.832Z,72.60
2018-03-29T05:05:19.926Z,72.76
2018-03-29T05:06:08.980Z,72.08
2018-03-29T05:06:58.021Z,71.69
2018-03-29T05:07:47.138Z,70.33
2018-03-29T05:08:36.249Z,70.31
2018-03-29T05:09:25.339Z,70.35
2018-03-29T05:10:14.373Z,69.33
2018-03-29T05:11:03.448Z,68.58
2018-03-29T05:11:52.532Z,68.53
2018-03-29T05:12:41.577Z,68.66
2018-03-29T05:13:30.621Z,67.76
2018-03-29T05:14:19.680Z,67.39
2018-03-29T05:15:08.720Z,68.76
2018-03-29T05:15:57.766Z,68.92
2018-03-29T05:16:46.857Z,69.19
2018-03-29T05:17:36.062Z,68.13
2018-03-29T05:18:25.109Z,68.24
2018-03-29T05:19:14.160Z,67.55
2018-03-29T05:20:03.223Z,67.58
2018-03-29T05:20:52.277Z,66.96
2018-03-29T05:21:41.326Z,67.71
2018-03-29T05:22:30.463Z,66.44
2018-03-29T05:23:19.520Z,65.70
2018-03-29T05:24:08.662Z,65.52
2018-03-29T05:24:57.750Z,65.27
2018-03-29T05:25:46.799Z,66.83
2018-03-29T05:26:38.626Z,67.02
2018-03-29T05:27:27.693Z,66.69
2018-03-29T05:28:16.756Z,66.01
2018-03-29T05:29:05.808Z,66.30
2018-03-29T05:29:54.900Z,66.98
2018-03-29T05:30:43.951Z,65.97
2018-03-29T05:31:33.039Z,67.16
2018-03-29T05:32:22.095Z,67.81
2018-03-29T05:33:11.158Z,68.09
2018-03-29T05:34:00.218Z,68.39
2018-03-29T05:34:49.269Z,68.34
2018-03-29T05:35:38.422Z,69.03
2018-03-29T05:36:27.466Z,69.64
2018-03-29T05:37:16.526Z,69.67
2018-03-29T05:38:05.573Z,69.22
2018-03-29T05:38:54.623Z,69.59
2018-03-29T05:39:43.667Z,69.43
2018-03-29T05:40:32.846Z,69.80
2018-03-29T05:41:21.921Z,70.91
2018-03-29T05:42:10.966Z,70.27
2018-03-29T05:43:00.018Z,70.77
2018-03-29T05:43:49.071Z,70.82
2018-03-29T05:44:38.129Z,70.43
2018-03-29T05:45:27.180Z,70.29
2018-03-29T05:46:16.290Z,70.31
2018-03-29T05:47:05.350Z,70.50
2018-03-29T05:47:54.405Z,70.08
2018-03-29T05:48:43.453Z,70.50
2018-03-29T05:49:32.499Z,70.34
2018-03-29T05:50:21.548Z,69.42
2018-03-29T05:51:10.592Z,68.30
2018-03-29T05:51:59.705Z,67.74
2018-03-29T05:52:48.753Z,68.29
2018-03-29T05:53:37.846Z,67.75
2018-03-29T05:54:26.887Z,67.81
2018-03-29T05:55:15.927Z,68.07
2018-03-29T05:56:05.029Z,67.74
2018-03-29T05:56:54.050Z,67.18
2018-03-29T05:57:43.221Z,67.33
2018-03-29T05:58:32.360Z,67.61
2018-03-29T05:59:21.408Z,67.47
2018-03-29T06:00:10.478Z,67.67
2018-03-29T06:00:59.534Z,65.79
2018-03-29T06:01:48.718Z,65.05
2018-03-29T06:02:37.769Z,64.41
2018-03-29T06:03:26.824Z,64.70
2018-03-29T06:04:15.954Z,64.41
2018-03-29T06:05:04.996Z,63.91
2018-03-29T06:05:54.041Z,64.49
2018-03-29T06:06:43.120Z,64.31
2018-03-29T06:07:32.182Z,64.06
2018-03-29T06:08:21.244Z,64.23
2018-03-29T06:09:10.409Z,64.01
2018-03-29T06:09:59.526Z,63.32
2018-03-29T06:10:48.587Z,64.58
2018-03-29T06:11:37.646Z,65.79
2018-03-29T06:12:26.699Z,66.20
2018-03-29T06:13:15.752Z,64.76
2018-03-29T06:14:07.523Z,64.11
2018-03-29T06:14:56.601Z,63.30
2018-03-29T06:15:45.781Z,64.26
2018-03-29T06:16:40.400Z,65.00
2018-03-29T06:17:29.454Z,64.42
2018-03-29T06:18:18.521Z,64.59
2018-03-29T06:19:09.497Z,62.81
2018-03-29T06:19:58.644Z,62.89
2018-03-29T06:20:47.689Z,61.99
2018-03-29T06:21:36.780Z,61.72
2018-03-29T06:22:25.824Z,62.41
2018-03-29T06:23:14.903Z,62.78
2018-03-29T06:24:03.991Z,63.51
2018-03-29T06:24:53.046Z,63.95
2018-03-29T06:25:42.133Z,64.35
2018-03-29T06:26:31.199Z,63.84
2018-03-29T06:27:20.244Z,63.19
2018-03-29T06:28:09.296Z,62.62
2018-03-29T06:28:58.341Z,62.50
2018-03-29T06:29:47.394Z,62.12
2018-03-29T06:30:36.450Z,61.36
2018-03-29T06:31:25.546Z,61.35
2018-03-29T06:32:14.588Z,58.86
2018-03-29T06:33:03.640Z,59.30
2018-03-29T06:33:52.708Z,58.65
2018-03-29T06:34:41.757Z,58.31
2018-03-29T06:35:30.813Z,58.36
2018-03-29T06:36:19.877Z,58.03
2018-03-29T06:37:09.057Z,57.46
2018-03-29T06:37:58.127Z,57.73
2018-03-29T06:38:47.190Z,57.51
2018-03-29T06:39:36.239Z,56.71
2018-03-29T06:40:25.399Z,57.13
2018-03-29T06:41:14.442Z,57.36
2018-03-29T06:42:03.485Z,56.37
2018-03-29T06:42:52.531Z,55.86
2018-03-29T06:43:41.591Z,56.96
2018-03-29T06:44:30.651Z,56.32
2018-03-29T06:45:19.709Z,56.92
2018-03-29T06:46:08.821Z,56.50
2018-03-29T06:46:57.879Z,56.29
2018-03-29T06:47:46.940Z,56.03
2018-03-29T06:48:35.993Z,56.08
2018-03-29T06:49:25.046Z,55.10
2018-03-29T06:50:14.089Z,55.94
2018-03-29T06:51:03.322Z,56.10
2018-03-29T06:51:52.368Z,54.62
2018-03-29T06:52:41.464Z,53.42
2018-03-29T06:53:30.506Z,54.91
2018-03-29T06:54:19.562Z,54.07
2018-03-29T06:55:08.609Z,53.39
2018-03-29T06:55:57.763Z,53.23
2018-03-29T06:56:46.823Z,53.36
2018-03-29T06:57:35.877Z,52.50
2018-03-29T06:58:24.944Z,53.65
2018-03-29T06:59:13.985Z,54.22
2018-03-29T07:00:03.034Z,54.08
2018-03-29T07:00:52.136Z,55.38
2018-03-29T07:01:41.229Z,55.37
2018-03-29T07:02:30.328Z,55.14
2018-03-29T07:03:19.409Z,54.00
2018-03-29T07:04:08.458Z,53.89
2018-03-29T07:04:57.497Z,52.89
2018-03-29T07:05:46.550Z,52.34
2018-03-29T07:06:35.587Z,52.84
2018-03-29T07:07:25.302Z,51.11
2018-03-29T07:08:14.352Z,51.17
2018-03-29T07:09:03.465Z,51.26
2018-03-29T07:09:52.533Z,51.07
2018-03-29T07:10:41.642Z,51.80
2018-03-29T07:11:30.709Z,50.27
2018-03-29T07:12:19.753Z,50.25
2018-03-29T07:13:08.858Z,50.77
2018-03-29T07:13:57.913Z,50.77
2018-03-29T07:14:46.966Z,50.96
2018-03-29T07:15:36.126Z,51.63
2018-03-29T07:16:25.173Z,51.73
2018-03-29T07:17:14.223Z,50.75
2018-03-29T07:18:03.328Z,48.71
2018-03-29T07:18:52.379Z,50.25
2018-03-29T07:19:41.461Z,51.43
2018-03-29T07:20:30.510Z,49.71
2018-03-29T07:21:19.872Z,50.81
2018-03-29T07:22:08.921Z,49.65
2018-03-29T07:22:57.967Z,50.79
2018-03-29T07:23:47.011Z,50.06
2018-03-29T07:24:36.262Z,49.07
2018-03-29T07:25:25.308Z,49.14
2018-03-29T07:26:14.415Z,49.39
2018-03-29T07:27:03.469Z,49.33
2018-03-29T07:27:52.515Z,50.50
2018-03-29T07:28:41.619Z,50.85
2018-03-29T07:29:30.674Z,50.79
2018-03-29T07:30:19.728Z,50.82
2018-03-29T07:31:08.801Z,51.72
2018-03-29T07:31:57.898Z,52.84
2018-03-29T07:32:46.949Z,53.16
2018-03-29T07:33:36.006Z,53.39
2018-03-29T07:34:25.052Z,53.59
2018-03-29T07:35:14.263Z,53.48
2018-03-29T07:36:03.324Z,53.17
2018-03-29T07:36:52.374Z,53.05
2018-03-29T07:37:41.424Z,52.87
2018-03-29T07:38:30.484Z,53.29
2018-03-29T07:39:19.535Z,52.37
2018-03-29T07:40:08.621Z,52.43
2018-03-29T07:40:57.713Z,52.13
2018-03-29T07:41:46.763Z,52.04
2018-03-29T07:42:35.808Z,51.04
2018-03-29T07:43:24.848Z,49.84
2018-03-29T07:44:13.949Z,51.03
2018-03-29T07:45:02.986Z,48.66
2018-03-29T07:45:52.036Z,47.99
2018-03-29T07:46:41.116Z,47.39
2018-03-29T07:47:30.168Z,48.09
2018-03-29T07:48:19.220Z,48.38
2018-03-29T07:49:08.268Z,47.81
2018-03-29T07:49:57.308Z,46.82
2018-03-29T07:50:46.358Z,46.82
2018-03-29T07:51:35.403Z,47.63
2018-03-29T07:52:27.600Z,47.69
2018-03-29T07:53:16.647Z,48.10
2018-03-29T07:54:05.718Z,46.86
2018-03-29T07:54:54.775Z,46.92
2018-03-29T07:55:43.823Z,47.02
2018-03-29T07:56:32.867Z,47.30
2018-03-29T07:57:21.913Z,46.38
2018-03-29T07:58:11.002Z,45.16
2018-03-29T07:59:00.124Z,45.19
2018-03-29T07:59:49.207Z,43.93
2018-03-29T08:00:38.259Z,42.59
2018-03-29T08:01:27.301Z,43.47
2018-03-29T08:02:16.348Z,44.08
2018-03-29T08:03:05.388Z,42.89
2018-03-29T08:03:54.476Z,43.62
2018-03-29T08:04:43.524Z,43.40
2018-03-29T08:05:32.569Z,43.79
2018-03-29T08:06:21.693Z,44.22
2018-03-29T08:07:10.743Z,42.83
2018-03-29T08:07:59.815Z,41.59
2018-03-29T08:08:48.888Z,41.98
2018-03-29T08:09:37.933Z,41.81
2018-03-29T08:10:27.133Z,41.56
2018-03-29T08:11:16.178Z,41.10
2018-03-29T08:12:05.237Z,40.41
2018-03-29T08:12:54.288Z,41.42
2018-03-29T08:13:43.338Z,41.59
2018-03-29T08:14:32.410Z,41.25
2018-03-29T08:15:21.510Z,42.01
2018-03-29T08:16:10.577Z,42.42
2018-03-29T08:17:01.340Z,41.30
2018-03-29T08:17:50.656Z,41.87
2018-03-29T08:18:39.709Z,39.98
2018-03-29T08:19:28.788Z,39.47
2018-03-29T08:20:17.838Z,40.04
2018-03-29T08:21:06.889Z,39.25
2018-03-29T08:21:55.940Z,39.58
2018-03-29T08:22:45.026Z,40.01
2018-03-29T08:23:34.073Z,42.34
2018-03-29T08:24:23.123Z,39.23
2018-03-29T08:25:12.171Z,39.56
2018-03-29T08:26:01.221Z,40.82
2018-03-29T08:26:50.285Z,40.81
2018-03-29T08:27:39.339Z,40.63
2018-03-29T08:28:28.558Z,41.78
2018-03-29T08:29:17.613Z,40.25
2018-03-29T08:30:06.657Z,40.97
2018-03-29T08:30:55.706Z,41.26
2018-03-29T08:31:44.760Z,40.45
2018-03-29T08:32:33.809Z,39.70
2018-03-29T08:33:22.855Z,40.03
2018-03-29T08:34:12.073Z,40.96
2018-03-29T08:35:01.123Z,41.52
2018-03-29T08:35:50.177Z,39.58
2018-03-29T08:36:39.236Z,39.66
2018-03-29T08:37:28.339Z,39.85
2018-03-29T08:38:17.379Z,39.21
2018-03-29T08:39:06.431Z,38.62
2018-03-29T08:39:55.767Z,38.75
2018-03-29T08:40:44.809Z,39.50
2018-03-29T08:41:33.855Z,38.69
2018-03-29T08:42:22.901Z,38.21
2018-03-29T08:43:11.952Z,36.38
2018-03-29T08:44:01.001Z,35.57
2018-03-29T08:44:50.133Z,36.38
2018-03-29T08:45:39.250Z,35.83
2018-03-29T08:46:28.300Z,36.17
2018-03-29T08:47:17.352Z,35.94
2018-03-29T08:48:06.513Z,34.56
2018-03-29T08:48:55.583Z,34.73
2018-03-29T08:49:44.639Z,34.17
2018-03-29T08:50:33.698Z,35.32
2018-03-29T08:51:22.753Z,35.14
2018-03-29T08:52:11.949Z,33.23
2018-03-29T08:53:01.017Z,32.74
2018-03-29T08:53:50.068Z,33.12
2018-03-29T08:54:39.107Z,33.71
2018-03-29T08:55:28.239Z,33.89
2018-03-29T08:56:17.334Z,34.42
2018-03-29T08:57:06.398Z,34.42
2018-03-29T08:57:55.548Z,34.67
2018-03-29T08:58:44.607Z,35.64
2018-03-29T08:59:33.662Z,35.85
2018-03-29T09:00:22.764Z,35.88
2018-03-29T09:01:11.816Z,33.87
2018-03-29T09:02:00.874Z,33.92
2018-03-29T09:02:49.924Z,34.96
2018-03-29T09:03:38.974Z,35.52
2018-03-29T09:04:28.122Z,34.81
2018-03-29T09:05:17.241Z,36.09
2018-03-29T09:06:06.297Z,34.85
2018-03-29T09:06:55.352Z,36.31
2018-03-29T09:07:44.433Z,35.21
2018-03-29T09:08:33.481Z,35.43
2018-03-29T09:09:22.563Z,35.49
2018-03-29T09:10:11.614Z,35.01
2018-03-29T09:11:00.790Z,35.30
2018-03-29T09:11:49.848Z,35.14
2018-03-29T09:12:38.901Z,35.29
2018-03-29T09:13:27.955Z,36.17
2018-03-29T09:14:17.005Z,35.81
2018-03-29T09:15:06.089Z,36.41
2018-03-29T09:15:55.155Z,35.40
2018-03-29T09:16:44.244Z,36.11
2018-03-29T09:17:33.292Z,35.77
2018-03-29T09:18:22.363Z,35.84
2018-03-29T09:19:11.426Z,36.85
2018-03-29T09:20:00.489Z,36.27
2018-03-29T09:20:49.549Z,35.92
2018-03-29T09:21:38.604Z,36.04
2018-03-29T09:22:27.804Z,36.42
2018-03-29T09:23:16.911Z,36.64
2018-03-29T09:24:05.973Z,37.52
2018-03-29T09:24:55.025Z,35.82
2018-03-29T09:25:44.077Z,36.30
2018-03-29T09:26:33.141Z,36.86
2018-03-29T09:27:22.223Z,36.29
2018-03-29T09:28:11.279Z,36.14
2018-03-29T09:29:00.380Z,36.89
2018-03-29T09:29:49.437Z,36.24
2018-03-29T09:30:38.493Z,36.13
2018-03-29T09:31:27.545Z,35.72
2018-03-29T09:32:16.592Z,35.83
2018-03-29T09:33:05.688Z,36.39
2018-03-29T09:33:54.809Z,35.00
2018-03-29T09:34:43.955Z,35.06
2018-03-29T09:35:33.004Z,34.38
2018-03-29T09:36:22.059Z,34.38
2018-03-29T09:37:11.137Z,35.47
2018-03-29T09:38:00.190Z,34.72
2018-03-29T09:38:49.245Z,34.79
2018-03-29T09:39:38.301Z,34.91
2018-03-29T09:40:27.423Z,34.23
2018-03-29T09:41:16.480Z,33.15
2018-03-29T09:42:05.569Z,34.33
2018-03-29T09:42:54.635Z,35.02
2018-03-29T09:43:43.691Z,34.67
2018-03-29T09:44:32.745Z,33.66
2018-03-29T09:45:21.796Z,34.27
2018-03-29T09:46:10.887Z,34.75
2018-03-29T09:46:59.936Z,32.85
2018-03-29T09:47:48.988Z,33.95
2018-03-29T09:48:38.061Z,33.72
2018-03-29T09:49:27.113Z,34.71
2018-03-29T09:50:16.163Z,33.22
2018-03-29T09:51:05.205Z,33.90
2018-03-29T09:51:54.349Z,34.41
2018-03-29T09:52:43.406Z,34.02
2018-03-29T09:53:32.457Z,33.58
2018-03-29T09:54:21.498Z,34.16
2018-03-29T09:55:10.550Z,34.81
2018-03-29T09:55:59.604Z,34.53
2018-03-29T09:56:48.749Z,32.78
2018-03-29T09:57:37.789Z,33.39
2018-03-29T09:58:26.841Z,34.23
2018-03-29T09:59:15.962Z,33.92
2018-03-29T10:00:05.832Z,34.48
2018-03-29T10:01:09.774Z,33.89
2018-03-29T10:01:58.894Z,34.42
2018-03-29T10:02:53.536Z,34.96
2018-03-29T10:05:08.225Z,34.56
2018-03-29T10:06:02.773Z,34.60
2018-03-29T10:06:57.461Z,32.00
2018-03-29T10:07:46.550Z,33.75
2018-03-29T10:08:35.631Z,34.01
2018-03-29T10:09:24.684Z,33.96
2018-03-29T10:10:13.744Z,33.58
2018-03-29T10:11:02.815Z,33.39
2018-03-29T10:11:51.860Z,33.29
2018-03-29T10:12:40.909Z,33.14
2018-03-29T10:13:30.057Z,33.53
2018-03-29T10:14:19.110Z,34.49
2018-03-29T10:15:08.169Z,33.41
2018-03-29T10:15:57.215Z,33.37
2018-03-29T10:16:46.360Z,33.59
2018-03-29T10:17:35.422Z,33.14
2018-03-29T10:18:24.477Z,33.39
2018-03-29T10:19:13.572Z,32.96
2018-03-29T10:20:02.620Z,33.83
2018-03-29T10:20:51.668Z,32.72
2018-03-29T10:21:40.720Z,33.40
2018-03-29T10:22:29.808Z,32.37
2018-03-29T10:23:18.864Z,32.43
2018-03-29T10:24:07.974Z,32.33
2018-03-29T10:24:57.041Z,32.93
2018-03-29T10:25:46.136Z,32.57
2018-03-29T10:26:35.185Z,32.93
2018-03-29T10:27:24.261Z,33.53
2018-03-29T10:28:13.308Z,33.57
2018-03-29T10:29:02.361Z,34.08
2018-03-29T10:29:51.411Z,34.16
2018-03-29T10:30:40.453Z,34.39
2018-03-29T10:31:29.524Z,32.58
2018-03-29T10:32:18.565Z,32.86
2018-03-29T10:33:07.620Z,33.54
2018-03-29T10:33:56.676Z,32.72
2018-03-29T10:34:45.721Z,32.61